ASG Airport (Springdale Muni) Information

FAA: ASG - ICAO: KASG

ASG Airport Location

State Arkansas
County Washington
City Springdale
ASG Airport is 1 mile southeast of Springdale, AR.
Latitude 36-10-35.0000N
Longitude 094-07-09.3000W
Elevation 1,352ft

KASG Airport METARs

METAR KASG 032148Z 23007G13KT 10SM CLR 24/15 A2993
Altimeter 29.93"
Temperature 24.0°C (75.2°F)
Wind 230° at 7KT with gusts to 13KT
Clouds Skies are clear.
Visibility 10.0mi
Time observed: 2021-12-03T21:48:00Z

ASG Airport Details

Status Operational
Activation April 1944
Ownership Public
Usage Public
Chart KANSAS CITY
ATC on-site Yes
Beacon schedule sunset-sunrise
Beacon color clear green

ASG Airport Contacts

Owner CITY OF SPRINGDALE
Owner address CITY HALL, 201 SPRING ST, SPRINGDALE, AR 72764
Owner phone 479-750-8114
Manager DARRELL WILLIAMS
Manager address 19414 OLD NORWOOD CHURCH RD, SILOAM SPRINGS, AR 72761
Manager phone (479) 409-2187

ASG Airport (Springdale Muni) Radio Frequencies

ASG (Airport) Radio Frequencies

UNICOM 122.95
Common traffic advisory frequency (CTAF) 118.2